Time;durP1;ratioP1;P1;durP2;ratioP2;P2;SDS_P1;SDS_P2;PMS_P1;PMS_P2;Temp;Humidity;BMP_temperature;BMP_pressure;BME280_temperature;BME280_humidity;BME280_pressure;Samples;Min_cycle;Max_cycle;Signal;HPM_P1;HPM_P2
2024/03/18 00:00:14;;;;;;;18.20;9.27;;;256.00;2252.80;;;;;;5037217;28;20045;-79
2024/03/18 00:02:48;;;;;;;16.65;8.32;;;256.20;2252.80;;;;;;5032965;28;20037;-80
2024/03/18 00:05:17;;;;;;;21.48;9.77;;;256.30;2252.80;;;;;;5049487;28;20025;-81
2024/03/18 00:07:47;;;;;;;21.90;9.27;;;256.40;2252.80;;;;;;5073389;28;20044;-78
2024/03/18 00:10:13;;;;;;;21.95;9.43;;;256.40;2252.80;;;;;;5061833;28;20036;-82
2024/03/18 00:12:43;;;;;;;17.25;8.70;;;256.50;2252.80;;;;;;5067011;28;20029;-78
2024/03/18 00:15:11;;;;;;;14.18;8.23;;;256.50;2252.80;;;;;;5053199;28;20078;-84
2024/03/18 00:17:37;;;;;;;20.80;8.73;;;256.20;2252.80;;;;;;5046249;28;20036;-78
2024/03/18 00:20:08;;;;;;;15.90;8.70;;;256.00;2252.80;;;;;;5046916;28;20040;-78
2024/03/18 00:22:37;;;;;;;20.08;9.25;;;256.10;2252.80;;;;;;5064840;28;20043;-78
2024/03/18 00:25:05;;;;;;;17.00;10.07;;;256.10;2252.80;;;;;;5045398;28;20028;-78
2024/03/18 00:27:31;;;;;;;17.15;8.13;;;231.30;2252.80;;;;;;5069135;28;20027;-79
2024/03/18 00:29:57;;;;;;;18.27;8.90;;;231.10;2252.80;;;;;;5047089;28;20029;-78
2024/03/18 00:32:23;;;;;;;14.85;7.93;;;230.90;2252.80;;;;;;5069943;28;20047;-79
2024/03/18 00:34:51;;;;;;;15.80;7.85;;;230.60;2252.80;;;;;;5062659;28;20041;-79
2024/03/18 00:37:17;;;;;;;13.70;6.85;;;230.40;2252.80;;;;;;5032875;28;20021;-84
2024/03/18 00:39:43;;;;;;;16.10;7.95;;;205.70;2252.80;;;;;;5068411;28;20039;-78
2024/03/18 00:42:09;;;;;;;12.35;7.25;;;205.50;2252.80;;;;;;5067580;28;20120;-78
2024/03/18 00:44:37;;;;;;;12.13;6.93;;;205.40;2252.80;;;;;;5045559;28;20174;-81
2024/03/18 00:47:03;;;;;;;15.43;8.52;;;205.40;2252.80;;;;;;5051417;28;20120;-78
2024/03/18 00:49:31;;;;;;;14.73;7.88;;;205.50;2252.80;;;;;;5054897;28;20123;-78
2024/03/18 00:51:57;;;;;;;15.32;7.63;;;205.50;2252.80;;;;;;5028731;28;20029;-77
2024/03/18 00:54:23;;;;;;;16.10;8.02;;;205.70;2252.80;;;;;;5070532;28;20032;-77
2024/03/18 00:56:49;;;;;;;17.58;8.68;;;230.50;2252.80;;;;;;5051158;28;20108;-76
2024/03/18 00:59:15;;;;;;;14.65;7.80;;;230.50;2252.80;;;;;;5043537;28;20037;-79
2024/03/18 01:01:41;;;;;;;19.35;9.75;;;230.40;2252.80;;;;;;5039588;28;20488;-77
2024/03/18 01:04:07;;;;;;;17.42;8.38;;;230.50;2252.80;;;;;;5063090;28;20370;-77
2024/03/18 01:06:33;;;;;;;22.70;10.00;;;230.70;2252.80;;;;;;5043655;28;20047;-79
2024/03/18 01:08:59;;;;;;;15.68;8.82;;;230.70;2252.80;;;;;;5041134;28;20135;-77
2024/03/18 01:11:25;;;;;;;17.35;9.00;;;230.70;2252.80;;;;;;5060538;28;20117;-78
2024/03/18 01:13:52;;;;;;;;;;;230.80;2252.80;;;;;;5056183;28;20025;-80
2024/03/18 01:16:20;;;;;;;18.98;8.35;;;230.70;2252.80;;;;;;5049553;28;20003;-86
2024/03/18 01:18:47;;;;;;;13.00;8.30;;;230.50;2252.80;;;;;;5069321;28;20032;-78
2024/03/18 01:21:13;;;;;;;14.80;8.63;;;230.60;2252.80;;;;;;5038307;28;20233;-77
2024/03/18 01:23:39;;;;;;;15.68;7.95;;;230.70;2252.80;;;;;;5049043;28;20093;-78
2024/03/18 01:26:07;;;;;;;15.30;8.73;;;230.60;2252.80;;;;;;5036126;28;20033;-79
2024/03/18 01:28:36;;;;;;;16.20;8.90;;;230.40;2252.80;;;;;;5049089;28;20029;-78
2024/03/18 01:31:03;;;;;;;21.65;9.95;;;230.50;2252.80;;;;;;5069642;28;20420;-79
2024/03/18 01:33:33;;;;;;;20.02;9.02;;;230.60;2252.80;;;;;;5051732;28;20107;-78
2024/03/18 01:35:59;;;;;;;16.50;8.60;;;230.60;2252.80;;;;;;5067176;28;20048;-77
2024/03/18 01:38:26;;;;;;;15.77;8.50;;;230.70;2252.80;;;;;;5067949;28;20032;-78
2024/03/18 01:40:55;;;;;;;17.77;9.18;;;230.80;2252.80;;;;;;5042330;28;20032;-77
2024/03/18 01:43:23;;;;;;;15.57;8.65;;;231.00;2252.80;;;;;;5049071;28;20040;-78
2024/03/18 01:45:49;;;;;;;15.27;8.70;;;231.10;2252.80;;;;;;5046586;28;20460;-77
2024/03/18 01:48:15;;;;;;;13.80;7.68;;;231.10;2252.80;;;;;;5062419;28;20116;-77
2024/03/18 01:50:41;;;;;;;17.77;9.00;;;231.00;2252.80;;;;;;5061017;28;20017;-78
2024/03/18 01:53:10;;;;;;;15.05;8.80;;;230.90;2252.80;;;;;;5045831;28;20228;-78
2024/03/18 01:55:39;;;;;;;20.55;10.43;;;231.20;2252.80;;;;;;5033872;28;20035;-78
2024/03/18 01:58:06;;;;;;;37.45;18.92;;;231.30;2252.80;;;;;;5064498;28;20035;-77
2024/03/18 02:00:36;;;;;;;30.90;16.00;;;231.30;2252.80;;;;;;5068916;28;20024;-78
2024/03/18 02:03:04;;;;;;;39.33;18.27;;;256.10;2252.80;;;;;;5048229;28;20036;-77
2024/03/18 02:05:31;;;;;;;25.27;13.38;;;256.10;2252.80;;;;;;5042245;28;20020;-76
2024/03/18 02:07:58;;;;;;;28.65;13.65;;;256.10;2252.80;;;;;;5047397;28;20083;-78
2024/03/18 02:10:24;;;;;;;25.60;12.85;;;256.10;2252.80;;;;;;5050590;28;20032;-77
2024/03/18 02:12:52;;;;;;;84.72;33.60;;;256.10;2252.80;;;;;;5053669;28;20119;-83
2024/03/18 02:15:20;;;;;;;30.63;13.93;;;256.20;2252.80;;;;;;5044858;28;20028;-79
2024/03/18 02:17:46;;;;;;;20.60;12.20;;;256.30;2252.80;;;;;;5040259;28;20032;-78
2024/03/18 02:20:12;;;;;;;19.27;10.85;;;256.30;2252.80;;;;;;5053082;28;20374;-78
2024/03/18 02:22:40;;;;;;;20.88;10.50;;;256.30;2252.80;;;;;;5040435;28;20047;-78
2024/03/18 02:25:08;;;;;;;19.13;10.27;;;256.30;2252.80;;;;;;5033277;28;20022;-78
2024/03/18 02:27:35;;;;;;;22.73;11.80;;;256.30;2252.80;;;;;;5032025;28;20474;-77
2024/03/18 02:30:01;;;;;;;20.55;11.55;;;256.40;2252.80;;;;;;5045855;28;20538;-78
2024/03/18 02:32:30;;;;;;;18.58;11.05;;;256.40;2252.80;;;;;;5052809;28;20088;-78
2024/03/18 02:34:56;;;;;;;22.15;10.25;;;256.40;2252.80;;;;;;5053074;28;20032;-78
2024/03/18 02:37:22;;;;;;;15.32;9.10;;;256.40;2252.80;;;;;;5050997;28;20029;-77
2024/03/18 02:39:48;;;;;;;18.30;10.00;;;256.40;2252.80;;;;;;5051732;28;20029;-78
2024/03/18 02:42:13;;;;;;;43.63;20.27;;;256.40;2252.80;;;;;;5051405;28;20386;-78
2024/03/18 02:44:39;;;;;;;58.85;24.50;;;256.40;2252.80;;;;;;5052934;28;20024;-78
2024/03/18 02:47:05;;;;;;;50.95;19.38;;;256.20;2252.80;;;;;;5050723;28;20025;-78
2024/03/18 02:49:31;;;;;;;26.92;14.02;;;256.30;2252.80;;;;;;5050814;28;20052;-82
2024/03/18 02:51:57;;;;;;;22.42;12.50;;;256.50;2252.80;;;;;;5051435;28;20032;-78
2024/03/18 02:54:22;;;;;;;;;;;256.60;2252.80;;;;;;5040181;28;20089;-78
2024/03/18 02:56:48;;;;;;;14.00;8.83;;;256.60;2252.80;;;;;;5053073;28;19915;-85
2024/03/18 02:59:14;;;;;;;17.90;9.25;;;256.70;2252.80;;;;;;5052623;28;20147;-78
2024/03/18 03:01:40;;;;;;;17.35;8.75;;;256.70;2252.80;;;;;;5051948;28;20058;-78
2024/03/18 03:04:06;;;;;;;16.42;8.98;;;256.80;2252.80;;;;;;5052635;28;20421;-79
2024/03/18 03:06:31;;;;;;;;;;;256.80;2252.80;;;;;;5039594;28;20040;-81
2024/03/18 03:08:57;;;;;;;14.65;7.20;;;281.60;2278.40;;;;;;5050625;28;19920;-79
2024/03/18 03:11:23;;;;;;;15.00;7.13;;;256.90;2252.80;;;;;;5052806;28;20099;-78
2024/03/18 03:13:49;;;;;;;13.27;6.97;;;256.90;2252.80;;;;;;5056079;28;20025;-78
2024/03/18 03:16:15;;;;;;;;;;;281.60;2278.40;;;;;;5055329;28;20102;-80
2024/03/18 03:18:41;;;;;;;12.07;6.47;;;281.60;2278.40;;;;;;5054284;28;19905;-78
2024/03/18 03:21:07;;;;;;;14.02;7.53;;;281.60;2278.40;;;;;;5054943;28;20103;-78
2024/03/18 03:23:33;;;;;;;;;;;281.60;2278.40;;;;;;5049426;28;20040;-78
2024/03/18 03:25:59;;;;;;;15.65;7.10;;;281.60;2278.40;;;;;;5050418;28;19911;-80
2024/03/18 03:28:24;;;;;;;10.57;6.50;;;281.60;2278.40;;;;;;5037528;28;20029;-80
2024/03/18 03:31:14;;;;;;;10.10;6.15;;;281.60;2278.40;;;;;;5056003;28;20489;-79
2024/03/18 03:33:40;;;;;;;11.18;7.32;;;256.90;2252.80;;;;;;5054676;28;20490;-77
2024/03/18 03:36:06;;;;;;;13.02;7.20;;;256.80;2252.80;;;;;;5055807;28;20037;-80
2024/03/18 03:38:33;;;;;;;10.13;5.97;;;256.80;2252.80;;;;;;5055820;28;20025;-79
2024/03/18 03:41:00;;;;;;;11.25;6.00;;;256.40;2252.80;;;;;;5055868;28;20051;-78
2024/03/18 03:43:26;;;;;;;12.05;6.63;;;256.60;2252.80;;;;;;5052325;28;20060;-78
2024/03/18 03:45:59;;;;;;;12.07;6.05;;;256.50;2252.80;;;;;;5054536;28;20025;-78
2024/03/18 03:48:29;;;;;;;11.52;6.15;;;256.50;2252.80;;;;;;5054201;28;20029;-78
2024/03/18 03:50:56;;;;;;;15.48;7.30;;;256.50;2252.80;;;;;;5054677;28;20040;-78
2024/03/18 03:53:24;;;;;;;12.27;6.68;;;256.40;2252.80;;;;;;5047735;28;20080;-78
2024/03/18 03:55:56;;;;;;;12.32;7.07;;;256.40;2252.80;;;;;;5041672;28;20017;-78
2024/03/18 03:58:23;;;;;;;12.45;7.38;;;256.50;2252.80;;;;;;5055559;28;20112;-78
2024/03/18 04:00:49;;;;;;;11.07;6.63;;;256.60;2252.80;;;;;;5053812;28;20099;-77
2024/03/18 04:03:17;;;;;;;13.30;6.97;;;256.60;2252.80;;;;;;5055199;28;20167;-79
2024/03/18 04:05:44;;;;;;;11.13;7.18;;;256.80;2252.80;;;;;;5053789;28;20025;-78
2024/03/18 04:08:10;;;;;;;15.00;7.60;;;256.80;2252.80;;;;;;5053554;28;20056;-78
2024/03/18 04:10:36;;;;;;;14.32;6.97;;;281.60;2278.40;;;;;;5053859;28;20021;-79
2024/03/18 04:13:03;;;;;;;14.30;7.30;;;281.60;2278.40;;;;;;5041463;28;20386;-82
2024/03/18 04:15:29;;;;;;;13.45;7.65;;;281.60;2278.40;;;;;;5054798;28;20024;-79
2024/03/18 04:17:55;;;;;;;18.50;9.13;;;281.60;2278.40;;;;;;5053897;28;20025;-78
2024/03/18 04:20:21;;;;;;;11.07;6.85;;;281.60;2278.40;;;;;;5055018;28;20013;-82
2024/03/18 04:22:54;;;;;;;17.48;6.95;;;281.60;2278.40;;;;;;5042225;28;20045;-78
2024/03/18 04:25:21;;;;;;;15.88;7.57;;;281.60;2278.40;;;;;;5054527;28;20056;-81
2024/03/18 04:27:48;;;;;;;12.07;6.55;;;256.90;2252.80;;;;;;5053866;28;20025;-78
2024/03/18 04:30:17;;;;;;;16.02;7.85;;;256.90;2252.80;;;;;;5054726;28;20017;-78
2024/03/18 04:32:43;;;;;;;15.73;7.95;;;256.90;2252.80;;;;;;5046938;28;20029;-78
2024/03/18 04:35:10;;;;;;;16.92;7.38;;;281.60;2278.40;;;;;;5036829;28;20025;-80
2024/03/18 04:37:51;;;;;;;14.75;7.93;;;281.60;2278.40;;;;;;5053332;28;20025;-77
2024/03/18 04:40:23;;;;;;;17.13;7.93;;;281.60;2278.40;;;;;;5053075;28;20132;-78
2024/03/18 04:42:50;;;;;;;13.18;7.97;;;281.60;2278.40;;;;;;5053092;28;20043;-79
2024/03/18 04:45:18;;;;;;;18.38;9.43;;;281.60;2278.40;;;;;;5036550;28;20021;-77
2024/03/18 04:47:45;;;;;;;17.55;9.80;;;281.60;2278.40;;;;;;5036599;28;20100;-81
2024/03/18 04:50:13;;;;;;;18.77;9.10;;;281.60;2278.40;;;;;;5054620;28;20060;-80
2024/03/18 04:52:40;;;;;;;14.43;8.18;;;281.60;2278.40;;;;;;5054381;28;20025;-78
2024/03/18 04:55:07;;;;;;;16.73;8.00;;;281.60;2278.40;;;;;;5052865;28;20524;-78
2024/03/18 04:57:33;;;;;;;16.50;8.10;;;281.60;2278.40;;;;;;5054241;28;20024;-78
2024/03/18 04:59:59;;;;;;;13.82;7.50;;;281.70;2278.40;;;;;;5053360;28;20112;-78
2024/03/18 05:02:25;;;;;;;13.60;7.18;;;281.60;2278.40;;;;;;5052459;28;20079;-78
2024/03/18 05:04:52;;;;;;;15.55;7.75;;;281.70;2278.40;;;;;;5053101;28;20060;-84
2024/03/18 05:07:18;;;;;;;12.57;6.78;;;281.70;2278.40;;;;;;5052520;28;20055;-78
2024/03/18 05:09:44;;;;;;;16.45;7.78;;;281.70;2278.40;;;;;;5052495;28;20116;-78
2024/03/18 05:12:13;;;;;;;17.27;6.70;;;281.70;2278.40;;;;;;5052686;28;20092;-77
2024/03/18 05:14:39;;;;;;;10.75;6.65;;;281.80;2278.40;;;;;;5052849;28;20017;-78
2024/03/18 05:17:05;;;;;;;15.30;6.75;;;281.80;2278.40;;;;;;5052162;28;20040;-78
2024/03/18 05:19:32;;;;;;;12.88;6.35;;;281.80;2278.40;;;;;;5051726;28;20029;-81
2024/03/18 05:21:57;;;;;;;14.80;7.95;;;281.80;2278.40;;;;;;5053746;28;20024;-80
2024/03/18 05:24:23;;;;;;;15.73;7.05;;;281.80;2278.40;;;;;;5052223;28;20036;-78
2024/03/18 05:26:49;;;;;;;;;;;281.80;2278.40;;;;;;5052565;28;20111;-78
2024/03/18 05:29:15;;;;;;;12.77;6.32;;;281.80;2278.40;;;;;;5028394;28;19911;-78
2024/03/18 05:31:40;;;;;;;;;;;281.80;2278.40;;;;;;5053978;28;20032;-78
2024/03/18 05:34:08;;;;;;;14.85;5.82;;;281.80;2278.40;;;;;;5052433;28;19905;-78
2024/03/18 05:36:34;;;;;;;11.98;7.13;;;281.80;2278.40;;;;;;5051929;28;20025;-78
2024/03/18 05:39:00;;;;;;;12.15;7.00;;;281.80;2278.40;;;;;;5053639;28;20541;-81
2024/03/18 05:41:26;;;;;;;10.65;6.53;;;281.90;2278.40;;;;;;5053110;28;20025;-80
2024/03/18 05:43:52;;;;;;;17.40;6.45;;;282.00;2278.40;;;;;;5054596;28;20489;-77
2024/03/18 05:46:18;;;;;;;13.98;7.57;;;282.10;2278.40;;;;;;5060267;28;20158;-76
2024/03/18 05:48:44;;;;;;;12.75;7.57;;;282.10;2278.40;;;;;;5063845;28;20483;-78
2024/03/18 05:51:10;;;;;;;17.30;7.20;;;282.10;2278.40;;;;;;5028627;28;20021;-78
2024/03/18 05:53:36;;;;;;;12.05;7.15;;;282.10;2278.40;;;;;;5067604;28;21389;-79
2024/03/18 05:56:02;;;;;;;15.07;7.55;;;282.10;2278.40;;;;;;5062829;28;20511;-77
2024/03/18 05:58:29;;;;;;;14.38;7.05;;;282.10;2278.40;;;;;;5042896;28;20044;-77
2024/03/18 06:00:55;;;;;;;22.67;10.60;;;282.20;2278.40;;;;;;5069226;28;20100;-80
2024/03/18 06:03:20;;;;;;;20.48;10.07;;;282.10;2278.40;;;;;;5035025;28;20128;-77
2024/03/18 06:05:46;;;;;;;30.73;19.23;;;282.20;2278.40;;;;;;5056292;28;20023;-77
2024/03/18 06:08:12;;;;;;;34.20;20.90;;;282.30;2278.40;;;;;;5065307;28;20079;-80
2024/03/18 06:10:38;;;;;;;;;;;282.30;2278.40;;;;;;5055291;28;20028;-78
2024/03/18 06:13:03;;;;;;;15.90;7.32;;;282.30;2278.40;;;;;;5060441;28;20366;-80
2024/03/18 06:15:29;;;;;;;;;;;282.30;2278.40;;;;;;5051066;28;20401;-85
2024/03/18 06:17:55;;;;;;;11.00;6.73;;;282.40;2278.40;;;;;;5050792;28;19912;-78
2024/03/18 06:20:22;;;;;;;12.63;6.28;;;282.30;2278.40;;;;;;5065271;28;20025;-78
2024/03/18 06:22:49;;;;;;;14.80;7.57;;;282.40;2278.40;;;;;;5048424;28;20097;-77
2024/03/18 06:27:59;;;;;;;17.92;8.60;;;307.20;2304.00;;;;;;5066848;28;20039;-77
2024/03/18 06:30:25;;;;;;;8.32;5.55;;;307.20;2304.00;;;;;;5060204;28;20013;-77
2024/03/18 06:32:51;;;;;;;10.55;4.50;;;307.30;2304.00;;;;;;5044460;28;20059;-78
2024/03/18 06:35:17;;;;;;;12.13;4.30;;;307.30;2304.00;;;;;;5060147;28;20059;-79
2024/03/18 06:37:43;;;;;;;10.30;4.38;;;307.30;2304.00;;;;;;5047581;28;20078;-80
2024/03/18 06:40:12;;;;;;;8.75;3.97;;;307.20;2252.80;;;;;;5048533;28;20123;-77
2024/03/18 06:42:38;;;;;;;13.25;5.07;;;307.20;2252.80;;;;;;5050263;28;20048;-78
2024/03/18 06:45:04;;;;;;;6.07;3.97;;;307.20;2304.00;;;;;;5042540;28;20037;-77
2024/03/18 06:47:30;;;;;;;9.18;4.30;;;307.30;2304.00;;;;;;5029842;28;20120;-77
2024/03/18 06:49:57;;;;;;;9.57;4.53;;;307.40;2304.00;;;;;;5070649;28;20100;-79
2024/03/18 06:52:23;;;;;;;9.05;5.25;;;307.30;2304.00;;;;;;5073338;28;20025;-80
2024/03/18 06:54:48;;;;;;;9.57;5.05;;;307.40;2304.00;;;;;;5040045;28;20048;-78
2024/03/18 06:57:15;;;;;;;14.00;6.88;;;307.40;2304.00;;;;;;5055066;28;20008;-78
2024/03/18 06:59:41;;;;;;;19.65;8.02;;;307.40;2304.00;;;;;;5050770;28;20466;-77
2024/03/18 07:02:06;;;;;;;16.33;7.43;;;307.30;2304.00;;;;;;5068871;28;20476;-80
2024/03/18 07:04:34;;;;;;;11.07;5.57;;;307.30;2304.00;;;;;;5049041;28;20026;-79
2024/03/18 07:06:59;;;;;;;13.85;8.75;;;307.40;2304.00;;;;;;5068945;28;20029;-78
2024/03/18 07:09:25;;;;;;;9.55;5.35;;;307.60;2278.40;;;;;;5051568;28;20091;-80
2024/03/18 07:11:51;;;;;;;8.98;5.97;;;307.80;2278.40;;;;;;5063198;28;20024;-79
2024/03/18 07:14:17;;;;;;;13.52;6.13;;;307.80;2304.00;;;;;;5061954;28;20027;-78
2024/03/18 07:16:43;;;;;;;12.57;4.93;;;307.90;2304.00;;;;;;5057717;28;20153;-77
2024/03/18 07:19:09;;;;;;;8.57;5.00;;;308.00;2304.00;;;;;;5063664;28;20463;-79
2024/03/18 07:21:36;;;;;;;11.25;5.18;;;308.10;2227.20;;;;;;5060283;28;20053;-78
2024/03/18 07:24:02;;;;;;;12.10;6.13;;;308.10;2201.60;;;;;;5035071;28;20032;-78
2024/03/18 07:26:31;;;;;;;10.02;4.82;;;308.10;2150.40;;;;;;5067044;28;20021;-78
2024/03/18 07:28:56;;;;;;;12.23;5.80;;;308.10;2176.00;;;;;;5045240;28;20029;-77
2024/03/18 07:31:22;;;;;;;22.30;7.65;;;333.10;2227.20;;;;;;5067429;28;20111;-78
2024/03/18 07:33:48;;;;;;;14.90;5.85;;;333.60;2150.40;;;;;;5053036;28;20055;-79
2024/03/18 07:36:14;;;;;;;10.82;4.70;;;358.60;2022.40;;;;;;5046157;28;20490;-82
2024/03/18 08:04:11;;;;;;;8.73;3.97;;;358.80;1843.20;;;;;;4993000;28;20175;-79
2024/03/18 08:06:39;;;;;;;10.68;4.07;;;358.80;1868.80;;;;;;5003725;28;20043;-80
2024/03/18 08:09:05;;;;;;;7.65;3.97;;;358.60;1894.40;;;;;;5006070;28;20088;-80
2024/03/18 08:11:31;;;;;;;8.52;4.10;;;358.40;1894.40;;;;;;5008128;28;20034;-80
2024/03/18 08:13:56;;;;;;;9.60;4.30;;;333.70;1868.80;;;;;;4992921;28;20387;-79
2024/03/18 08:16:22;;;;;;;10.80;4.18;;;333.70;1894.40;;;;;;5009949;28;20096;-80
2024/03/18 08:18:48;;;;;;;9.95;4.57;;;333.70;1894.40;;;;;;5009570;28;20026;-79
2024/03/18 08:21:14;;;;;;;9.70;4.40;;;333.70;1868.80;;;;;;5009967;28;20022;-80
2024/03/18 08:23:39;;;;;;;10.05;4.85;;;333.70;1894.40;;;;;;5012022;28;20121;-80
2024/03/18 08:26:05;;;;;;;11.65;5.88;;;333.70;1920.00;;;;;;5009805;28;20029;-79
2024/03/18 08:28:31;;;;;;;13.38;3.95;;;358.40;1945.60;;;;;;5010199;28;20038;-77
2024/03/18 08:30:57;;;;;;;9.43;4.88;;;358.50;1868.80;;;;;;5002198;28;20038;-79
2024/03/18 08:33:23;;;;;;;8.38;4.30;;;358.50;1843.20;;;;;;5007738;28;20034;-77
2024/03/18 08:35:52;;;;;;;11.73;3.85;;;358.60;1817.60;;;;;;5007761;28;20129;-78
2024/03/18 08:38:18;;;;;;;6.60;4.18;;;358.50;1817.60;;;;;;4985206;28;20022;-81
2024/03/18 08:40:43;;;;;;;6.97;4.10;;;358.40;1868.80;;;;;;4992230;28;20037;-79
2024/03/18 08:43:10;;;;;;;8.70;5.30;;;358.50;1868.80;;;;;;4992389;28;20065;-80
2024/03/18 08:45:36;;;;;;;9.80;4.85;;;333.70;1868.80;;;;;;4992469;28;20030;-78
2024/03/18 08:48:02;;;;;;;10.23;4.32;;;333.70;1894.40;;;;;;4992396;28;20368;-80
2024/03/18 08:50:28;;;;;;;12.82;4.45;;;333.70;1920.00;;;;;;4992568;28;20499;-77
2024/03/18 08:52:54;;;;;;;8.40;4.50;;;333.70;1894.40;;;;;;5009644;28;20030;-76
2024/03/18 08:55:20;;;;;;;11.20;4.78;;;333.70;1920.00;;;;;;4998443;28;20042;-77
2024/03/18 08:57:46;;;;;;;10.77;4.82;;;333.70;1868.80;;;;;;5008242;28;20113;-77
2024/03/18 09:00:15;;;;;;;8.02;4.13;;;333.70;1843.20;;;;;;4988458;28;20023;-79
2024/03/18 09:02:41;;;;;;;7.32;4.68;;;333.70;1817.60;;;;;;4994734;28;20518;-77
2024/03/18 09:05:07;;;;;;;8.48;4.25;;;358.40;1817.60;;;;;;4975011;28;20026;-79
2024/03/18 09:07:33;;;;;;;5.97;3.72;;;358.50;1817.60;;;;;;4967129;28;20034;-76
2024/03/18 09:09:59;;;;;;;9.27;3.53;;;358.50;1792.00;;;;;;4993303;28;20446;-76
2024/03/18 09:12:25;;;;;;;12.77;5.22;;;358.70;1792.00;;;;;;4995943;28;20072;-76
2024/03/18 09:14:52;;;;;;;18.30;7.55;;;358.70;1817.60;;;;;;4995775;28;20109;-77
2024/03/18 09:17:18;;;;;;;10.18;4.65;;;358.80;1792.00;;;;;;4978845;28;20026;-77
2024/03/18 09:19:44;;;;;;;20.45;10.05;;;358.80;1792.00;;;;;;4995854;28;20033;-80
2024/03/18 09:22:10;;;;;;;5.55;4.15;;;358.80;1740.80;;;;;;4995862;28;20026;-80
2024/03/18 09:24:36;;;;;;;14.85;6.68;;;359.00;1715.20;;;;;;4978330;28;20030;-80
2024/03/18 09:27:02;;;;;;;8.07;4.88;;;359.00;1715.20;;;;;;4977930;28;20035;-83
2024/03/18 09:29:28;;;;;;;7.43;4.30;;;359.20;1740.80;;;;;;4976274;28;20038;-77
2024/03/18 09:31:54;;;;;;;11.85;4.15;;;384.00;1664.00;;;;;;4979805;28;20038;-80
2024/03/18 09:34:20;;;;;;;9.85;4.50;;;384.10;1638.40;;;;;;4983633;28;20502;-82
2024/03/18 09:36:46;;;;;;;7.72;4.55;;;384.60;1638.40;;;;;;4979528;28;20034;-78
2024/03/18 09:39:12;;;;;;;11.25;5.13;;;409.60;1612.80;;;;;;4976872;28;20027;-78
2024/03/18 09:41:40;;;;;;;6.50;3.72;;;409.60;1612.80;;;;;;4969963;28;20057;-77
2024/03/18 09:44:14;;;;;;;10.68;4.70;;;409.70;1561.60;;;;;;4989721;28;20089;-76
2024/03/18 09:46:40;;;;;;;11.68;4.13;;;409.70;1561.60;;;;;;4977199;28;20035;-77
2024/03/18 09:49:25;;;;;;;8.95;4.45;;;384.70;1510.40;;;;;;4977968;28;20053;-77
2024/03/18 09:51:51;;;;;;;8.30;3.85;;;384.70;1561.60;;;;;;4995227;28;20022;-77
2024/03/18 09:54:19;;;;;;;9.60;4.72;;;384.70;1561.60;;;;;;4995516;28;20030;-77
2024/03/18 09:56:54;;;;;;;9.88;3.83;;;384.90;1536.00;;;;;;5001163;28;20471;-77
2024/03/18 09:59:20;;;;;;;9.20;5.10;;;410.20;1536.00;;;;;;4977236;28;20510;-78
2024/03/18 10:01:45;;;;;;;8.73;4.45;;;435.40;1484.80;;;;;;4982259;28;20034;-78
2024/03/18 10:04:11;;;;;;;10.48;4.40;;;435.80;1433.60;;;;;;4967460;28;20035;-77
2024/03/18 10:06:39;;;;;;;10.43;4.45;;;435.80;1484.80;;;;;;4998010;28;20030;-76
2024/03/18 10:09:05;;;;;;;11.77;4.05;;;435.90;1433.60;;;;;;4993448;28;20034;-78
2024/03/18 10:11:31;;;;;;;4.47;2.85;;;435.60;1433.60;;;;;;4997877;28;20032;-77
2024/03/18 10:13:57;;;;;;;8.93;3.72;;;436.10;1382.40;;;;;;4978656;28;20022;-77
2024/03/18 10:16:23;;;;;;;9.90;4.60;;;435.30;1433.60;;;;;;4993379;28;20037;-75
2024/03/18 10:18:49;;;;;;;8.93;3.67;;;435.60;1408.00;;;;;;5000154;28;20034;-76
2024/03/18 10:21:15;;;;;;;8.00;4.07;;;435.80;1408.00;;;;;;4996530;28;20424;-75
2024/03/18 10:23:53;;;;;;;8.00;4.00;;;435.90;1433.60;;;;;;4976951;28;20038;-77
2024/03/18 10:26:19;;;;;;;7.95;4.00;;;435.70;1382.40;;;;;;4990280;28;20026;-77
2024/03/18 10:28:46;;;;;;;10.77;3.92;;;435.70;1408.00;;;;;;4976951;28;20058;-76
2024/03/18 10:31:19;;;;;;;8.25;3.90;;;435.40;1382.40;;;;;;4976355;28;20126;-76
2024/03/18 10:33:46;;;;;;;7.43;3.97;;;410.50;1408.00;;;;;;4976985;28;20026;-76
2024/03/18 10:36:35;;;;;;;7.88;3.95;;;410.40;1408.00;;;;;;5002150;28;20116;-78
2024/03/18 10:39:07;;;;;;;7.78;4.35;;;410.50;1408.00;;;;;;4998944;28;20022;-79
2024/03/18 10:41:40;;;;;;;7.72;3.60;;;410.40;1408.00;;;;;;4983080;28;20027;-77
2024/03/18 10:44:19;;;;;;;7.15;4.15;;;410.50;1382.40;;;;;;4994163;28;20490;-79
2024/03/18 10:46:46;;;;;;;7.63;4.70;;;410.40;1408.00;;;;;;4987126;28;20031;-76
2024/03/18 10:49:17;;;;;;;8.27;5.10;;;410.30;1433.60;;;;;;4994421;28;20030;-77
2024/03/18 10:51:45;;;;;;;14.05;4.05;;;410.40;1408.00;;;;;;4978121;28;20034;-77
2024/03/18 10:54:17;;;;;;;8.15;4.05;;;435.40;1408.00;;;;;;4994211;28;20026;-80
2024/03/18 10:56:46;;;;;;;8.70;4.10;;;435.90;1356.80;;;;;;4994258;28;20022;-76
2024/03/18 10:59:15;;;;;;;8.02;4.38;;;435.90;1382.40;;;;;;4980157;28;20092;-76
2024/03/18 11:01:41;;;;;;;8.13;3.92;;;435.60;1382.40;;;;;;4994206;28;20555;-76
2024/03/18 11:04:28;;;;;;;7.95;4.68;;;435.60;1356.80;;;;;;4994468;28;20043;-76
2024/03/18 11:06:57;;;;;;;;;;;435.90;1356.80;;;;;;4991467;28;20040;-75
2024/03/18 11:09:24;;;;;;;9.07;4.30;;;435.80;1382.40;;;;;;4992441;28;20287;-80
2024/03/18 11:11:50;;;;;;;11.10;4.50;;;435.90;1356.80;;;;;;4993832;28;20101;-77
2024/03/18 11:14:27;;;;;;;11.60;4.30;;;460.80;1408.00;;;;;;4993683;28;20022;-76
2024/03/18 11:16:57;;;;;;;8.45;3.72;;;460.90;1356.80;;;;;;4990082;28;20097;-77
2024/03/18 11:19:27;;;;;;;8.65;4.00;;;461.00;1331.20;;;;;;4993773;28;20498;-76
2024/03/18 11:22:04;;;;;;;7.70;3.88;;;461.00;1331.20;;;;;;4974685;28;20030;-80
2024/03/18 11:24:33;;;;;;;6.47;3.92;;;461.40;1331.20;;;;;;4975759;28;20049;-75
2024/03/18 11:27:00;;;;;;;8.05;4.03;;;486.50;1305.60;;;;;;4990936;28;20025;-79
2024/03/18 11:29:35;;;;;;;8.65;4.32;;;486.60;1254.40;;;;;;4976024;28;20084;-78
2024/03/18 11:32:01;;;;;;;6.30;3.55;;;486.70;1254.40;;;;;;4974931;28;20052;-78
2024/03/18 11:34:27;;;;;;;8.38;4.03;;;486.50;1254.40;;;;;;4976319;28;20034;-79
2024/03/18 11:36:54;;;;;;;10.15;4.60;;;461.60;1280.00;;;;;;4993487;28;20034;-79
2024/03/18 11:39:21;;;;;;;7.10;3.75;;;486.90;1254.40;;;;;;4993464;28;20033;-77
2024/03/18 11:41:58;;;;;;;13.80;3.55;;;487.10;1203.20;;;;;;4993312;28;20018;-81
2024/03/18 11:44:24;;;;;;;7.47;3.92;;;486.70;1228.80;;;;;;4991929;28;20038;-80
2024/03/18 11:47:03;;;;;;;12.82;4.43;;;486.40;1280.00;;;;;;4975758;28;20026;-79
2024/03/18 11:49:30;;;;;;;8.90;4.00;;;486.70;1254.40;;;;;;4990086;28;20034;-78
2024/03/18 11:51:57;;;;;;;6.60;4.00;;;486.60;1228.80;;;;;;4987749;28;20022;-80
2024/03/18 11:54:23;;;;;;;13.07;3.60;;;486.50;1177.60;;;;;;4972285;28;20030;-78
2024/03/18 11:56:49;;;;;;;6.90;3.35;;;486.70;1203.20;;;;;;4970187;28;20177;-78
2024/03/18 11:59:15;;;;;;;6.13;2.67;;;486.50;1177.60;;;;;;4973578;28;20497;-79
2024/03/18 12:01:41;;;;;;;4.80;2.30;;;486.70;1152.00;;;;;;4993145;28;20181;-82
2024/03/18 12:04:07;;;;;;;5.70;3.28;;;486.70;1126.40;;;;;;4980766;28;20069;-80
2024/03/18 12:06:38;;;;;;;4.50;2.60;;;487.10;1152.00;;;;;;4977586;28;20480;-81
2024/03/18 12:09:05;;;;;;;7.10;3.55;;;487.10;1075.20;;;;;;4990832;28;20581;-79
2024/03/18 12:11:32;;;;;;;6.35;3.60;;;487.00;1126.40;;;;;;4994001;28;20034;-80
2024/03/18 12:13:58;;;;;;;6.55;3.33;;;487.00;1126.40;;;;;;4992860;28;20448;-80
2024/03/18 12:16:26;;;;;;;12.45;3.33;;;486.80;1177.60;;;;;;4990145;28;20480;-80
2024/03/18 12:18:52;;;;;;;8.60;2.90;;;486.50;1177.60;;;;;;4976310;28;20036;-78
2024/03/18 12:21:18;;;;;;;7.47;3.30;;;486.50;1152.00;;;;;;4975538;28;20031;-81
2024/03/18 12:29:24;;;;;;;7.78;3.40;;;486.80;1177.60;;;;;;4992759;28;20025;-76
2024/03/18 12:31:52;;;;;;;6.10;3.80;;;487.30;1152.00;;;;;;4972022;28;20085;-78
2024/03/18 12:34:18;;;;;;;19.40;4.05;;;512.20;1152.00;;;;;;4992721;28;20558;-77
2024/03/18 12:36:47;;;;;;;6.47;3.42;;;487.30;1177.60;;;;;;4995331;28;20065;-79
2024/03/18 12:39:14;;;;;;;4.95;3.13;;;487.00;1177.60;;;;;;4996359;28;20026;-77
2024/03/18 12:41:41;;;;;;;8.50;3.50;;;512.80;1152.00;;;;;;4995112;28;20041;-80
2024/03/18 12:44:08;;;;;;;9.88;4.03;;;512.10;1152.00;;;;;;4995302;28;20026;-81
2024/03/18 12:46:34;;;;;;;11.68;3.42;;;512.00;1203.20;;;;;;4983554;28;20022;-85